Time;durP1;ratioP1;P1;durP2;ratioP2;P2;SDS_P1;SDS_P2;PMS_P1;PMS_P2;Temp;Humidity;BMP_temperature;BMP_pressure;BME280_temperature;BME280_humidity;BME280_pressure;Samples;Min_cycle;Max_cycle;Signal;HPM_P1;HPM_P2
2022/11/29 00:00:54;;;;;;;;;1.00;1.00;;;;;11.22;78.58;100819.72;5055786;28;45485;-71
2022/11/29 00:03:20;;;;;;;;;1.33;0.33;;;;;11.25;78.48;100824.16;5054915;28;45606;-74
2022/11/29 00:05:46;;;;;;;;;0.00;0.00;;;;;11.26;78.17;100811.13;5055480;28;45635;-74
2022/11/29 00:08:12;;;;;;;;;1.00;1.00;;;;;11.27;78.15;100812.00;5056518;28;45447;-75
2022/11/29 00:10:37;;;;;;;;;0.33;0.00;;;;;11.27;78.63;100805.06;5056865;28;45534;-73
2022/11/29 00:13:04;;;;;;;;;2.00;1.00;;;;;11.29;78.06;100802.50;5057040;28;45360;-74
2022/11/29 00:15:30;;;;;;;;;0.00;0.00;;;;;11.19;78.09;100782.13;5057188;28;46068;-75
2022/11/29 00:17:55;;;;;;;;;0.67;0.00;;;;;11.33;77.75;100823.53;5057295;28;45502;-75
2022/11/29 00:20:21;;;;;;;;;0.67;0.00;;;;;11.37;78.50;100837.63;5057116;28;45266;-75
2022/11/29 00:22:46;;;;;;;;;2.00;0.00;;;;;11.39;78.21;100824.59;5057258;28;45570;-75
2022/11/29 00:25:12;;;;;;;;;0.00;0.00;;;;;11.32;77.87;100821.78;5056889;28;45483;-76
2022/11/29 00:27:37;;;;;;;;;0.00;0.00;;;;;11.35;77.49;100818.38;5057100;28;45315;-75
2022/11/29 00:30:03;;;;;;;;;1.00;0.00;;;;;11.34;77.45;100821.84;5057134;28;45331;-76
2022/11/29 00:32:29;;;;;;;;;1.00;0.00;;;;;11.11;77.30;100776.66;5057207;28;45302;-76
2022/11/29 00:34:54;;;;;;;;;0.00;0.00;;;;;11.31;77.86;100809.53;5057021;28;45509;-76
2022/11/29 00:37:20;;;;;;;;;0.00;0.00;;;;;11.32;77.84;100826.09;5056872;28;45359;-75
2022/11/29 00:39:45;;;;;;;;;0.00;0.00;;;;;11.31;77.50;100820.00;5056994;28;45319;-76
2022/11/29 00:42:11;;;;;;;;;0.67;0.00;;;;;11.30;77.11;100820.84;5057124;28;45462;-76
2022/11/29 00:44:36;;;;;;;;;0.00;0.00;;;;;11.25;77.22;100824.16;5056870;28;45422;-76
2022/11/29 00:47:02;;;;;;;;;1.00;0.00;;;;;11.21;77.20;100823.16;5056529;28;45478;-69
2022/11/29 00:49:27;;;;;;;;;0.33;0.00;;;;;11.19;77.67;100814.38;5057237;28;45460;-75
2022/11/29 00:51:53;;;;;;;;;0.67;0.00;;;;;11.19;77.39;100809.16;5055979;28;45478;-77
2022/11/29 00:54:19;;;;;;;;;2.00;0.00;;;;;11.18;77.48;100802.16;5056789;28;45544;-77
2022/11/29 00:56:44;;;;;;;;;0.00;0.00;;;;;11.18;77.60;100796.03;5056916;28;45299;-70
2022/11/29 00:59:10;;;;;;;;;0.00;0.00;;;;;11.17;77.65;100778.56;5056896;28;45325;-77
2022/11/29 01:01:36;;;;;;;;;1.00;0.00;;;;;11.18;77.72;100794.31;5057001;28;45423;-76
2022/11/29 01:04:02;;;;;;;;;0.00;0.00;;;;;11.16;78.09;100782.94;5056300;28;45593;-76
2022/11/29 01:06:27;;;;;;;;;0.00;0.00;;;;;11.18;78.28;100796.94;5056427;28;45385;-77
2022/11/29 01:08:53;;;;;;;;;1.00;0.00;;;;;11.14;78.54;100827.31;5056646;28;45657;-77
2022/11/29 01:11:22;;;;;;;;;0.00;0.00;;;;;11.19;78.48;100813.50;5057063;28;45784;-75
2022/11/29 01:13:48;;;;;;;;;0.00;0.00;;;;;11.22;78.18;100795.28;5056599;28;46116;-76
2022/11/29 01:16:15;;;;;;;;;0.00;0.00;;;;;11.22;78.50;100785.72;5059845;28;45428;-76
2022/11/29 01:18:41;;;;;;;;;0.00;0.00;;;;;10.95;78.57;100757.88;5059973;28;46030;-77
2022/11/29 01:21:10;;;;;;;;;0.00;0.00;;;;;11.19;78.43;100796.09;5060498;28;45485;-77
2022/11/29 01:23:36;;;;;;;;;0.00;0.00;;;;;11.04;78.14;100783.44;5060349;28;46244;-77
2022/11/29 01:26:11;;;;;;;;;0.00;0.00;;;;;11.20;77.75;100791.72;5059927;28;45357;-76
2022/11/29 01:28:37;;;;;;;;;0.00;0.00;;;;;11.22;77.19;100784.81;5061446;28;45512;-76
2022/11/29 01:31:07;;;;;;;;;0.00;0.00;;;;;11.19;77.13;100776.91;5061018;28;45396;-77
2022/11/29 01:33:33;;;;;;;;;0.00;0.00;;;;;11.11;77.95;100782.75;5061055;28;46164;-76
2022/11/29 01:35:58;;;;;;;;;0.00;0.00;;;;;11.08;77.92;100768.69;5063595;28;45373;-76
2022/11/29 01:38:24;;;;;;;;;0.00;0.00;;;;;11.13;77.73;100777.59;5060716;28;45481;-76
2022/11/29 01:41:08;;;;;;;;;0.67;0.00;;;;;11.10;77.95;100777.47;5061885;28;45505;-77
2022/11/29 01:43:55;;;;;;;;;1.00;0.00;;;;;11.10;77.95;100769.63;5060582;28;46030;-76
2022/11/29 01:46:21;;;;;;;;;0.00;0.00;;;;;10.88;78.07;100718.41;5060855;28;45358;-76
2022/11/29 01:48:47;;;;;;;;;0.00;0.00;;;;;11.09;78.14;100755.69;5061625;28;45642;-76
2022/11/29 01:51:13;;;;;;;;;0.00;0.00;;;;;11.12;77.86;100747.03;5062265;28;45873;-76
2022/11/29 01:53:42;;;;;;;;;0.00;0.00;;;;;10.83;78.72;100717.41;5059977;28;45444;-76
2022/11/29 01:56:09;;;;;;;;;1.00;0.00;;;;;10.77;78.87;100736.38;5060169;28;45488;-76
2022/11/29 01:58:35;;;;;;;;;0.00;0.00;;;;;10.78;78.77;100714.63;5061281;28;45227;-76
2022/11/29 02:01:01;;;;;;;;;0.00;0.00;;;;;11.00;78.39;100746.66;5062047;28;45514;-76
2022/11/29 02:03:26;;;;;;;;;1.67;0.33;;;;;11.01;77.97;100751.06;5060830;28;46149;-76
2022/11/29 02:05:53;;;;;;;;;0.00;0.00;;;;;11.02;78.09;100737.13;5060059;28;45337;-76
2022/11/29 02:08:28;;;;;;;;;0.00;0.00;;;;;11.06;78.16;100741.63;5062400;28;45497;-77
2022/11/29 02:11:12;;;;;;;;;0.00;0.00;;;;;11.08;78.17;100742.56;5067348;28;45476;-78
2022/11/29 02:14:13;;;;;;;;;0.00;0.00;;;;;11.06;78.67;100746.84;5067739;28;45792;-77
2022/11/29 02:16:58;;;;;;;;;1.00;0.00;;;;;11.09;78.74;100750.44;5067555;28;45196;-76
2022/11/29 02:19:27;;;;;;;;;0.67;0.00;;;;;11.13;78.55;100751.44;5065689;28;45250;-77
2022/11/29 02:22:00;;;;;;;;;0.33;0.00;;;;;11.14;78.58;100755.81;5066018;28;45279;-76
2022/11/29 02:24:28;;;;;;;;;1.00;0.00;;;;;11.18;78.25;100760.34;5063736;28;45328;-78
2022/11/29 02:27:01;;;;;;;;;1.00;0.00;;;;;11.22;78.20;100749.13;5061647;28;45623;-77
2022/11/29 02:29:59;;;;;;;;;0.00;0.00;;;;;11.25;78.12;100750.94;5060132;28;45226;-77
2022/11/29 02:32:43;;;;;;;;;1.33;0.00;;;;;11.26;77.81;100745.75;5037759;28;45273;-74
2022/11/29 02:35:17;;;;;;;;;0.67;0.00;;;;;11.27;78.12;100749.25;5058600;28;46083;-76
2022/11/29 02:38:07;;;;;;;;;0.33;0.00;;;;;11.27;78.10;100751.88;5074076;28;45606;-76
2022/11/29 02:40:36;;;;;;;;;0.00;0.00;;;;;11.27;78.02;100737.06;5059071;28;45475;-76
2022/11/29 02:43:14;;;;;;;;;0.00;0.00;;;;;11.30;78.19;100737.16;5059230;28;45292;-75
2022/11/29 02:45:54;;;;;;;;;0.00;0.00;;;;;11.31;78.63;100751.13;5074068;28;47102;-76
2022/11/29 02:48:38;;;;;;;;;0.00;0.00;;;;;11.31;78.82;100754.59;5058430;28;45194;-76
2022/11/29 02:51:11;;;;;;;;;1.67;0.33;;;;;11.11;78.75;100721.75;5058848;28;45494;-71
2022/11/29 02:53:58;;;;;;;;;0.33;0.00;;;;;11.36;78.65;100746.94;5058621;28;45317;-71
2022/11/29 02:56:38;;;;;;;;;0.00;0.00;;;;;11.37;78.84;100755.66;5058019;28;45401;-77
2022/11/29 02:59:10;;;;;;;;;0.33;0.00;;;;;11.37;78.95;100753.03;5058584;28;45415;-76
2022/11/29 03:02:03;;;;;;;;;0.00;0.00;;;;;11.32;79.26;100748.56;5058704;28;45462;-71
2022/11/29 03:04:54;;;;;;;;;0.00;0.00;;;;;11.37;79.42;100753.91;5058222;28;45263;-76
2022/11/29 03:07:43;;;;;;;;;0.00;0.00;;;;;11.34;79.68;100735.53;5057717;28;46492;-76
2022/11/29 03:10:29;;;;;;;;;0.00;0.00;;;;;11.39;79.11;100733.03;5057915;28;45325;-76
2022/11/29 03:12:57;;;;;;;;;0.67;0.00;;;;;11.38;78.79;100720.78;5058133;28;45436;-76
2022/11/29 03:15:31;;;;;;;;;1.00;0.00;;;;;11.41;79.07;100737.47;5058207;28;45504;-76
2022/11/29 03:17:59;;;;;;;;;0.00;0.00;;;;;11.42;79.04;100741.88;5058010;28;45409;-76
2022/11/29 03:20:28;;;;;;;;;1.00;0.00;;;;;11.38;79.33;100739.09;5057806;28;45313;-74
2022/11/29 03:23:11;;;;;;;;;0.00;0.00;;;;;11.39;79.18;100743.50;5057825;28;45467;-76
2022/11/29 03:25:45;;;;;;;;;0.00;0.00;;;;;11.38;79.55;100736.47;5058382;28;45722;-69
2022/11/29 03:28:18;;;;;;;;;1.00;0.00;;;;;11.37;79.37;100729.50;5057568;28;46152;-75
2022/11/29 03:31:01;;;;;;;;;2.00;0.00;;;;;11.34;79.15;100727.69;5057986;28;45412;-74
2022/11/29 03:33:37;;;;;;;;;0.00;0.00;;;;;11.34;79.30;100731.19;5057822;28;45506;-76
2022/11/29 03:36:10;;;;;;;;;0.00;0.00;;;;;11.38;78.96;100726.03;5060283;28;45845;-77
2022/11/29 03:38:44;;;;;;;;;0.00;0.00;;;;;11.39;79.23;100725.19;5072210;28;45298;-75
2022/11/29 03:41:29;;;;;;;;;0.00;0.00;;;;;11.41;78.94;100724.38;5057632;28;45458;-75
2022/11/29 03:44:17;;;;;;;;;0.00;0.00;;;;;11.42;78.66;100723.56;5067569;28;45549;-73
2022/11/29 03:46:53;;;;;;;;;0.00;0.00;;;;;11.40;78.93;100713.88;5084664;28;44868;-74
2022/11/29 03:49:19;;;;;;;;;0.67;0.00;;;;;11.37;79.01;100719.91;5077833;28;45347;-75
2022/11/29 03:52:03;;;;;;;;;1.00;0.00;;;;;11.37;78.61;100725.13;5059024;28;45477;-70
2022/11/29 03:54:55;;;;;;;;;0.00;0.00;;;;;11.32;78.72;100721.50;5057918;28;45502;-69
2022/11/29 03:57:33;;;;;;;;;0.00;0.00;;;;;11.26;78.72;100723.94;5057750;28;45362;-69
2022/11/29 04:00:07;;;;;;;;;0.00;0.00;;;;;11.20;78.73;100731.59;5057561;28;46109;-70
2022/11/29 04:03:01;;;;;;;;;0.00;0.00;;;;;11.17;79.34;100736.75;5057318;28;45226;-71
2022/11/29 04:05:54;;;;;;;;;0.00;0.00;;;;;11.21;78.85;100723.78;5057142;28;45507;-70
2022/11/29 04:08:46;;;;;;;;;1.00;0.00;;;;;11.26;78.93;100742.22;5057295;28;45801;-75
2022/11/29 04:11:33;;;;;;;;;0.00;0.00;;;;;11.29;78.75;100737.97;5057053;28;46331;-75
2022/11/29 04:14:17;;;;;;;;;0.00;0.00;;;;;11.32;79.04;100732.88;5057049;28;45356;-76
2022/11/29 04:17:23;;;;;;;;;0.00;0.00;;;;;11.35;78.75;100732.06;5057403;28;45546;-74
2022/11/29 04:20:09;;;;;;;;;0.00;0.00;;;;;11.39;78.92;100735.66;5049668;28;45508;-76
2022/11/29 04:22:57;;;;;;;;;0.00;0.00;;;;;11.42;78.86;100727.88;5057306;28;46299;-75
2022/11/29 04:25:53;;;;;;;;;0.00;0.00;;;;;11.43;79.22;100732.28;5056690;28;45451;-75
2022/11/29 04:28:47;;;;;;;;;0.00;0.00;;;;;11.45;79.02;100749.78;5057787;28;45412;-72
2022/11/29 04:31:28;;;;;;;;;0.00;0.00;;;;;11.46;79.18;100735.88;5057043;28;45358;-75
2022/11/29 04:33:56;;;;;;;;;2.00;0.00;;;;;11.48;78.92;100742.06;5056490;28;46196;-76
2022/11/29 04:36:47;;;;;;;;;0.00;0.00;;;;;11.43;79.33;100743.63;5056839;28;45514;-75
2022/11/29 04:39:16;;;;;;;;;1.00;0.00;;;;;11.49;79.45;100750.78;5072544;28;45314;-73
2022/11/29 04:42:06;;;;;;;;;0.00;0.00;;;;;11.27;79.31;100708.28;5057321;28;45670;-70
2022/11/29 04:44:53;;;;;;;;;1.00;0.00;;;;;11.52;79.49;100743.03;5056787;28;46221;-76
2022/11/29 04:47:36;;;;;;;;;0.00;0.00;;;;;11.52;79.95;100743.03;5056685;28;45214;-75
2022/11/29 04:50:20;;;;;;;;;0.00;0.00;;;;;11.48;79.91;100739.44;5058342;28;45642;-74
2022/11/29 04:53:19;;;;;;;;;13.25;11.00;;;;;11.54;79.86;100747.47;5059075;28;45537;-76
2022/11/29 04:56:10;;;;;;;;;26.75;23.75;;;;;11.43;79.74;100717.47;5060001;28;45220;-76
2022/11/29 04:58:45;;;;;;;;;9.50;6.00;;;;;11.59;79.87;100733.63;5060100;28;45638;-76
2022/11/29 05:01:36;;;;;;;;;9.00;8.25;;;;;11.54;79.31;100720.41;5060430;28;45314;-70
2022/11/29 05:04:27;;;;;;;;;1.67;1.67;;;;;11.62;79.34;100731.97;5060364;28;45448;-76
2022/11/29 05:07:16;;;;;;;;;2.67;2.67;;;;;11.65;79.75;100732.06;5060189;28;45618;-74
2022/11/29 05:10:00;;;;;;;;;1.00;0.00;;;;;11.66;79.57;100732.97;5060101;28;45389;-76
2022/11/29 05:12:43;;;;;;;;;0.00;0.00;;;;;11.65;79.34;100742.53;5060055;28;45470;-76
2022/11/29 05:15:15;;;;;;;;;1.33;1.00;;;;;11.66;79.56;100744.31;5060562;28;45358;-76
2022/11/29 05:18:13;;;;;;;;;0.00;0.00;;;;;11.67;79.58;100739.97;5059976;28;45509;-76
2022/11/29 05:20:44;;;;;;;;;19.50;18.00;;;;;11.65;79.20;100752.13;5059736;28;45341;-75
2022/11/29 05:23:26;;;;;;;;;3.33;2.33;;;;;11.67;79.40;100753.91;5060146;28;45378;-77
2022/11/29 05:26:05;;;;;;;;;1.00;0.67;;;;;11.69;79.38;100753.97;5060089;28;45318;-76
2022/11/29 05:28:49;;;;;;;;;0.00;0.00;;;;;11.70;79.21;100755.75;5075155;28;45466;-77
2022/11/29 05:31:42;;;;;;;;;1.00;0.00;;;;;11.70;79.40;100761.00;5075675;28;45376;-76
2022/11/29 05:34:16;;;;;;;;;0.00;0.00;;;;;11.71;79.68;100747.94;5059641;28;45232;-77
2022/11/29 05:36:57;;;;;;;;;0.00;0.00;;;;;11.70;79.70;100761.88;5058128;28;45422;-77
2022/11/29 05:39:35;;;;;;;;;0.00;0.00;;;;;11.67;80.24;100761.78;5055742;28;46135;-75
2022/11/29 05:42:16;;;;;;;;;1.00;0.00;;;;;11.66;80.40;100757.41;5062705;28;45345;-75
2022/11/29 05:45:02;;;;;;;;;1.00;0.00;;;;;11.64;80.28;100760.78;5055723;28;45526;-75
2022/11/29 05:48:18;;;;;;;;;0.00;0.00;;;;;11.67;80.12;100764.38;5056380;28;45511;-75
2022/11/29 05:51:10;;;;;;;;;0.00;0.00;;;;;11.70;79.77;100746.16;5025388;28;46072;-76
2022/11/29 05:53:54;;;;;;;;;0.00;0.00;;;;;11.47;80.08;100711.47;5057172;28;45483;-74
2022/11/29 05:56:58;;;;;;;;;3.75;2.75;;;;;11.73;80.19;100750.59;5070574;28;45439;-77
2022/11/29 05:59:28;;;;;;;;;1.00;0.67;;;;;11.78;80.11;100769.03;5058743;28;45366;-69
2022/11/29 06:02:09;;;;;;;;;5.75;4.75;;;;;11.80;79.91;100770.88;5057149;28;45412;-74
2022/11/29 06:04:41;;;;;;;;;14.00;12.75;;;;;11.84;79.73;100766.63;5057458;28;45432;-76
2022/11/29 06:07:15;;;;;;;;;0.00;0.00;;;;;11.75;79.88;100768.09;5056266;28;45298;-76
2022/11/29 06:09:48;;;;;;;;;0.00;0.00;;;;;11.59;80.33;100757.16;5058665;28;45500;-76
2022/11/29 06:12:25;;;;;;;;;1.00;0.00;;;;;11.71;80.25;100773.22;5058635;28;45966;-75
2022/11/29 06:15:03;;;;;;;;;0.00;0.00;;;;;11.72;80.21;100770.66;5056834;28;45424;-76
2022/11/29 06:17:56;;;;;;;;;1.33;0.00;;;;;11.74;80.06;100765.47;5053593;28;45621;-74
2022/11/29 06:20:43;;;;;;;;;2.67;2.00;;;;;11.74;79.62;100761.13;5062841;28;45461;-68
2022/11/29 06:23:29;;;;;;;;;0.00;0.00;;;;;11.66;79.24;100759.13;5056031;28;45507;-74
2022/11/29 06:26:07;;;;;;;;;2.00;2.00;;;;;11.59;78.95;100757.16;5057093;28;45238;-75
2022/11/29 06:29:18;;;;;;;;;9.75;9.00;;;;;11.57;79.50;100761.47;5057017;28;45425;-68
2022/11/29 06:31:50;;;;;;;;;9.25;6.00;;;;;11.61;79.39;100769.44;5058265;28;45416;-74
2022/11/29 06:34:47;;;;;;;;;3.67;3.67;;;;;11.67;79.23;100766.13;5058046;28;46102;-74
2022/11/29 06:37:26;;;;;;;;;0.00;0.00;;;;;11.69;78.84;100760.09;5056917;28;45473;-75
2022/11/29 06:39:54;;;;;;;;;12.00;6.75;;;;;11.63;79.47;100762.53;5056542;28;45604;-69
2022/11/29 06:42:19;;;;;;;;;29.00;26.25;;;;;11.66;79.28;100765.25;5057972;28;45504;-75
2022/11/29 06:44:46;;;;;;;;;69.50;56.50;;;;;11.67;79.19;100766.13;5057933;28;46191;-72
2022/11/29 06:47:31;;;;;;;;;36.50;34.25;;;;;11.63;79.36;100769.50;5057670;28;45470;-70
2022/11/29 06:50:03;;;;;;;;;64.75;53.75;;;;;11.58;79.80;100771.06;5057141;28;45473;-74
2022/11/29 06:52:44;;;;;;;;;3.67;2.00;;;;;11.59;79.95;100775.50;5058104;28;45507;-75
2022/11/29 06:55:47;;;;;;;;;2.00;2.00;;;;;11.62;80.00;100770.31;5056334;28;45934;-74
2022/11/29 06:58:43;;;;;;;;;6.00;6.00;;;;;11.67;79.99;100773.97;5057023;28;45444;-74
2022/11/29 07:01:21;;;;;;;;;13.25;12.25;;;;;11.73;79.80;100766.31;5058206;28;45372;-75
2022/11/29 07:04:11;;;;;;;;;24.25;20.00;;;;;11.78;79.48;100759.47;5058355;28;45471;-75
2022/11/29 07:06:37;;;;;;;;;0.00;0.00;;;;;11.78;80.50;100758.56;5057853;28;46256;-75
2022/11/29 07:09:14;;;;;;;;;1.00;1.00;;;;;11.72;81.34;100777.63;5058333;28;45466;-75
2022/11/29 07:11:41;;;;;;;;;2.00;1.00;;;;;11.69;81.88;100769.66;5058338;28;45406;-75
2022/11/29 07:14:08;;;;;;;;;0.00;0.00;;;;;11.74;81.75;100784.66;5057830;28;45505;-74
2022/11/29 07:16:58;;;;;;;;;1.67;1.00;;;;;11.77;81.30;100786.47;5057892;28;46250;-73
2022/11/29 07:19:42;;;;;;;;;1.00;1.00;;;;;11.77;81.92;100772.50;5057598;28;45761;-74
2022/11/29 07:22:36;;;;;;;;;1.00;1.00;;;;;11.72;81.69;100775.88;5056038;28;45479;-73
2022/11/29 07:25:15;;;;;;;;;1.00;0.00;;;;;11.70;82.15;100774.09;5057629;28;45353;-72
2022/11/29 07:27:49;;;;;;;;;0.00;0.00;;;;;11.78;82.11;100784.75;5043274;28;46047;-73
2022/11/29 07:30:21;;;;;;;;;0.67;0.00;;;;;11.85;81.70;100776.25;5037335;28;45615;-78
2022/11/29 07:32:52;;;;;;;;;1.00;1.00;;;;;11.91;81.30;100766.84;5036744;28;45426;-76
2022/11/29 07:35:31;;;;;;;;;11.00;8.50;;;;;11.96;81.10;100777.47;5037407;28;45350;-76
2022/11/29 07:38:15;;;;;;;;;23.00;19.75;;;;;12.00;81.27;100767.97;5047973;28;46153;-71
2022/11/29 07:40:59;;;;;;;;;2.00;2.00;;;;;12.01;81.14;100778.47;5054438;28;45627;-81
2022/11/29 07:43:36;;;;;;;;;0.33;0.33;;;;;12.03;81.20;100782.00;5055248;28;45551;-74
2022/11/29 07:46:01;;;;;;;;;2.00;1.00;;;;;12.03;81.11;100789.00;5054907;28;45551;-78
2022/11/29 07:48:27;;;;;;;;;0.67;0.00;;;;;11.98;81.35;100791.50;5056198;28;46231;-80
2022/11/29 07:50:55;;;;;;;;;3.00;2.00;;;;;11.90;82.63;100793.00;5055925;28;45360;-73
2022/11/29 07:53:22;;;;;;;;;2.33;2.33;;;;;11.85;82.01;100784.09;5056391;28;45434;-72
2022/11/29 07:55:48;;;;;;;;;2.00;1.67;;;;;11.91;82.46;100797.38;5056499;28;45484;-76
2022/11/29 07:58:15;;;;;;;;;1.00;0.00;;;;;11.94;82.17;100802.72;5055886;28;45488;-74
2022/11/29 08:00:42;;;;;;;;;0.00;0.00;;;;;11.86;82.00;100783.25;5056225;28;45460;-79
2022/11/29 08:03:08;;;;;;;;;1.00;1.00;;;;;12.02;81.19;100806.44;5056417;28;45472;-76
2022/11/29 08:05:35;;;;;;;;;2.00;1.00;;;;;11.98;81.35;100783.63;5056153;28;45547;-76
2022/11/29 08:08:01;;;;;;;;;1.33;1.00;;;;;12.11;80.69;100787.47;5063695;28;46475;-74
2022/11/29 08:10:26;;;;;;;;;1.00;0.00;;;;;12.41;79.97;100802.25;5056465;28;45306;-78
2022/11/29 08:12:52;;;;;;;;;0.00;0.00;;;;;12.58;79.28;100810.56;5056472;28;45378;-76
2022/11/29 08:15:19;;;;;;;;;1.00;1.00;;;;;12.64;78.89;100801.09;5057277;28;45341;-74
2022/11/29 08:17:45;;;;;;;;;2.00;2.00;;;;;12.67;78.78;100808.16;5056868;28;46190;-74
2022/11/29 08:20:12;;;;;;;;;3.00;1.00;;;;;12.65;78.12;100799.38;5057165;28;45207;-73
2022/11/29 08:22:38;;;;;;;;;0.00;0.00;;;;;12.68;77.93;100812.56;5057321;28;45549;-72
2022/11/29 08:25:06;;;;;;;;;0.00;0.00;;;;;12.59;77.34;100778.25;5058595;28;45483;-73
2022/11/29 08:27:36;;;;;;;;;3.00;0.67;;;;;12.83;77.69;100804.19;5060603;28;46161;-74
2022/11/29 08:30:05;;;;;;;;;0.00;0.00;;;;;12.96;77.31;100808.00;5060524;28;45192;-73
2022/11/29 08:32:32;;;;;;;;;0.67;0.00;;;;;12.92;76.76;100788.69;5060538;28;45456;-72
2022/11/29 08:34:57;;;;;;;;;1.67;1.00;;;;;13.11;76.56;100792.63;5060769;28;45246;-72
2022/11/29 08:37:23;;;;;;;;;3.00;2.00;;;;;13.26;76.27;100821.84;5060490;28;45419;-73
2022/11/29 08:39:48;;;;;;;;;4.00;4.00;;;;;13.22;76.26;100834.88;5061082;28;45275;-71
2022/11/29 08:42:14;;;;;;;;;8.00;7.00;;;;;13.15;76.44;100839.09;5060599;28;45548;-74
2022/11/29 08:44:39;;;;;;;;;3.33;2.00;;;;;13.09;76.40;100828.41;5060465;28;45460;-75
2022/11/29 08:50:23;;;;;;;;;2.33;2.00;;;;;12.77;77.67;100804.03;5060742;28;45501;-75
2022/11/29 08:55:34;;;;;;;;;2.00;2.00;;;;;12.93;77.52;100828.06;5060488;28;45357;-73
2022/11/29 08:58:05;;;;;;;;;1.00;1.00;;;;;13.00;77.37;100836.09;5059927;28;45555;-75
2022/11/29 09:00:32;;;;;;;;;1.00;1.00;;;;;13.04;77.07;100843.19;5060687;28;45467;-75
2022/11/29 09:03:58;;;;;;;;;2.33;0.67;;;;;13.06;76.61;100847.59;5058757;28;45556;-72
2022/11/29 09:05:43;;;;;;;;;2.00;0.00;;;;;13.01;77.11;100846.63;5059863;28;45445;-74
2022/11/29 09:08:09;;;;;;;;;1.00;0.00;;;;;13.11;77.16;100840.75;5059995;28;45705;-76
2022/11/29 09:10:36;;;;;;;;;0.00;0.00;;;;;13.17;76.60;100847.88;5060149;28;45345;-75
2022/11/29 09:13:02;;;;;;;;;4.00;3.00;;;;;13.23;76.61;100852.38;5060001;28;45429;-74
2022/11/29 09:15:27;;;;;;;;;2.00;1.00;;;;;13.31;76.61;100850.88;5060002;28;45575;-74
2022/11/29 09:17:53;;;;;;;;;3.00;2.33;;;;;13.45;76.39;100844.19;5060013;28;45896;-74
2022/11/29 09:20:18;;;;;;;;;2.00;2.00;;;;;13.40;75.64;100814.31;5059877;28;45250;-74
2022/11/29 09:22:44;;;;;;;;;1.67;1.00;;;;;13.67;75.13;100847.31;5060062;28;45494;-74
2022/11/29 09:25:09;;;;;;;;;7.00;7.00;;;;;13.75;74.84;100857.97;5060115;28;45410;-74
2022/11/29 09:27:35;;;;;;;;;13.75;11.25;;;;;13.76;75.31;100846.63;5059575;28;45499;-73
2022/11/29 09:30:00;;;;;;;;;10.25;10.25;;;;;13.88;75.07;100858.25;5059745;28;45289;-73
2022/11/29 09:32:26;;;;;;;;;30.00;26.50;;;;;13.90;75.31;100859.16;5059608;28;45238;-71
2022/11/29 09:34:52;;;;;;;;;25.25;23.75;;;;;14.03;75.15;100867.34;5060000;28;45516;-75
2022/11/29 09:37:17;;;;;;;;;18.50;18.00;;;;;14.16;74.69;100860.59;5059342;28;46146;-74
2022/11/29 09:39:43;;;;;;;;;22.00;21.25;;;;;14.18;74.68;100859.75;5059634;28;45240;-74
2022/11/29 09:42:28;;;;;;;;;25.00;24.50;;;;;14.17;74.24;100863.25;5059611;28;45419;-74
2022/11/29 09:45:06;;;;;;;;;10.00;9.25;;;;;14.16;74.64;100858.84;5060137;28;45289;-74
2022/11/29 09:47:48;;;;;;;;;10.75;10.50;;;;;14.15;74.54;100861.44;5059246;28;45400;-74
2022/11/29 09:50:53;;;;;;;;;2.00;2.00;;;;;14.05;75.51;100857.75;5059218;28;45373;-74
2022/11/29 09:53:57;;;;;;;;;17.75;14.75;;;;;14.14;75.71;100868.44;5059148;28;45294;-74
2022/11/29 09:56:32;;;;;;;;;2.33;2.00;;;;;14.16;74.50;100866.72;5025069;28;45292;-73
2022/11/29 09:59:27;;;;;;;;;1.00;1.00;;;;;14.12;73.86;100864.88;5059176;28;45265;-71
2022/11/29 10:02:14;;;;;;;;;3.00;2.00;;;;;14.27;73.67;100870.47;5036256;28;45505;-74
2022/11/29 10:04:47;;;;;;;;;0.67;0.67;;;;;14.41;73.11;100857.59;5059077;28;45333;-72
2022/11/29 10:07:21;;;;;;;;;3.33;3.00;;;;;14.47;72.81;100841.06;5059155;28;45189;-74
2022/11/29 10:10:01;;;;;;;;;1.00;1.00;;;;;14.68;71.41;100856.34;5059000;28;46204;-75
2022/11/29 10:12:47;;;;;;;;;3.33;2.00;;;;;14.79;70.98;100862.69;5059182;28;45335;-75
2022/11/29 10:15:24;;;;;;;;;3.00;1.00;;;;;14.84;70.15;100874.22;5059243;28;45889;-74
2022/11/29 10:18:12;;;;;;;;;5.00;4.00;;;;;14.67;70.30;100857.22;5058989;28;45206;-73
2022/11/29 10:20:41;;;;;;;;;5.00;3.00;;;;;14.78;70.18;100875.81;5058920;28;45490;-75
2022/11/29 10:23:30;;;;;;;;;0.00;0.00;;;;;14.75;70.60;100878.41;5057521;28;45647;-74
2022/11/29 10:25:57;;;;;;;;;0.00;0.00;;;;;14.78;70.69;100867.94;5059227;28;45446;-73
2022/11/29 10:28:32;;;;;;;;;0.00;0.00;;;;;14.76;69.42;100874.91;5057655;28;45412;-75
2022/11/29 10:31:30;;;;;;;;;4.00;0.00;;;;;14.68;69.05;100877.38;5058862;28;46070;-75
2022/11/29 10:33:59;;;;;;;;;2.00;2.00;;;;;14.60;69.64;100877.25;5058877;28;45322;-74
2022/11/29 10:36:42;;;;;;;;;3.00;2.00;;;;;14.47;69.57;100878.72;5057444;28;45413;-74
2022/11/29 10:39:35;;;;;;;;;2.00;1.67;;;;;14.41;70.39;100865.47;5058630;28;45346;-76
2022/11/29 10:42:05;;;;;;;;;0.00;0.00;;;;;14.52;69.83;100868.28;5058274;28;46253;-75
2022/11/29 10:44:32;;;;;;;;;2.00;1.00;;;;;14.55;69.23;100864.88;5058315;28;45350;-74
2022/11/29 10:47:04;;;;;;;;;0.00;0.00;;;;;14.54;70.01;100856.06;5058261;28;45505;-76
2022/11/29 10:49:34;;;;;;;;;2.00;1.00;;;;;14.55;69.66;100835.94;5057472;28;45214;-75
2022/11/29 10:51:59;;;;;;;;;2.67;2.67;;;;;14.82;69.91;100856.59;5058377;28;45307;-75
2022/11/29 10:54:31;;;;;;;;;2.00;2.00;;;;;14.85;68.82;100857.53;5058555;28;45377;-75
2022/11/29 10:57:00;;;;;;;;;0.33;0.33;;;;;14.82;68.46;100852.25;5058799;28;45183;-75
2022/11/29 10:59:29;;;;;;;;;1.00;1.00;;;;;14.83;68.74;100856.63;5058746;28;45433;-75
2022/11/29 11:01:56;;;;;;;;;3.00;3.00;;;;;14.87;69.05;100844.44;5057900;28;45436;-73
2022/11/29 11:04:28;;;;;;;;;14.00;9.67;;;;;15.02;68.18;100847.31;5057495;28;45464;-74
2022/11/29 11:07:00;;;;;;;;;5.33;5.33;;;;;15.01;68.72;100849.94;5056089;28;45495;-74
2022/11/29 11:09:45;;;;;;;;;6.33;6.00;;;;;15.03;68.13;100842.94;5056039;28;45452;-75
2022/11/29 11:12:14;;;;;;;;;3.00;2.33;;;;;15.06;68.36;100846.53;5056985;28;46119;-73
2022/11/29 11:14:40;;;;;;;;;12.33;11.33;;;;;15.21;68.02;100839.72;5056979;28;45411;-76
2022/11/29 11:17:28;;;;;;;;;6.67;5.33;;;;;15.38;67.76;100832.06;5057145;28;45536;-82
2022/11/29 11:20:00;;;;;;;;;8.00;6.00;;;;;15.51;67.31;100829.63;5054939;28;45450;-74
2022/11/29 11:22:28;;;;;;;;;7.67;7.00;;;;;15.32;67.24;100796.03;5057144;28;45313;-79
2022/11/29 11:25:06;;;;;;;;;4.33;4.33;;;;;15.57;66.96;100826.22;5054490;28;45347;-78
2022/11/29 11:27:40;;;;;;;;;4.33;4.00;;;;;15.69;67.22;100802.66;5054526;28;45383;-73
2022/11/29 11:30:20;;;;;;;;;2.67;2.00;;;;;15.85;66.05;100816.94;5057393;28;45366;-77
2022/11/29 11:33:07;;;;;;;;;0.33;0.33;;;;;15.47;66.03;100809.41;5056965;28;45394;-77
2022/11/29 11:35:33;;;;;;;;;5.67;4.00;;;;;15.11;66.40;100802.72;5054283;28;45381;-76
2022/11/29 11:37:58;;;;;;;;;3.67;3.00;;;;;14.91;67.25;100805.03;5057323;28;45472;-78
2022/11/29 11:40:27;;;;;;;;;1.33;1.00;;;;;14.43;69.05;100776.16;5057369;28;45567;-76
2022/11/29 11:42:56;;;;;;;;;1.67;1.00;;;;;14.49;69.65;100816.56;5051446;28;46531;-76
2022/11/29 11:45:30;;;;;;;;;0.00;0.00;;;;;14.44;69.98;100826.13;5055733;28;45508;-75
2022/11/29 11:48:04;;;;;;;;;1.00;0.00;;;;;14.22;70.77;100830.06;5054205;28;45347;-75
2022/11/29 11:50:33;;;;;;;;;0.00;0.00;;;;;14.04;70.29;100809.56;5056996;28;45505;-75
2022/11/29 11:53:18;;;;;;;;;0.00;0.00;;;;;14.15;70.37;100824.69;5056740;28;45674;-73
2022/11/29 11:55:59;;;;;;;;;0.00;0.00;;;;;14.21;70.38;100827.41;5056509;28;45487;-77
2022/11/29 11:58:28;;;;;;;;;1.00;0.00;;;;;14.25;70.72;100819.63;5054982;28;45490;-75
2022/11/29 12:01:23;;;;;;;;;1.33;0.67;;;;;14.36;70.84;100824.19;5053626;28;45527;-77
2022/11/29 12:04:20;;;;;;;;;1.00;0.00;;;;;14.62;69.50;100815.09;5056906;28;45587;-77
2022/11/29 12:06:50;;;;;;;;;0.00;0.00;;;;;14.78;68.12;100805.72;5057005;28;45646;-77
2022/11/29 12:09:44;;;;;;;;;0.00;0.00;;;;;14.90;68.03;100800.66;5057313;28;45329;-71